KERV/ERV METAR and TAF weather

Enter ICAO airport designator
Station Type Date Time Source
KERV METAR 2019/02/18 03:55 UTC NOAA

KERV 180355Z AUTO 03010KT 10SM CLR 11/01 A3001 RMK AO2 T01060011


Station Type Date Time Source
KERV Decoded METAR 2019/02/18 03:55 UTC NOAA

Kerrville, Kerrville Municipal Airport/Louis Schreiner Field, TX, United States (KERV) 29-58N 099-05W
Feb 17, 2019 - 10:55 PM EST / 2019.02.18 0355 UTC
Wind: from the NNE (030 degrees) at 12 MPH (10 KT):0
Visibility: 10 mile(s):0
Sky conditions: clear
Temperature: 51.1 F (10.6 C)
Dew Point: 34.0 F (1.1 C)
Relative Humidity: 51%
Pressure (altimeter): 30.01 in. Hg (1016 hPa)
ob: KERV 180355Z AUTO 03010KT 10SM CLR 11/01 A3001 RMK AO2 T01060011
cycle: 4

Station Type Date Time Source
KERV TAF UTC NOAA

Error!


Example: see airport list